sensor_id;sensor_type;location;lat;lon;timestamp;pressure;altitude;pressure_sealevel;temperature;humidity
49835;BME280;35729;52.090;13.162;2023-06-14T00:01:20;101118.53;;;14.26;55.48
49835;BME280;35729;52.090;13.162;2023-06-14T00:03:49;101109.97;;;14.20;55.72
49835;BME280;35729;52.090;13.162;2023-06-14T00:06:18;101118.91;;;14.14;55.91
49835;BME280;35729;52.090;13.162;2023-06-14T00:08:49;101115.59;;;14.07;56.16
49835;BME280;35729;52.090;13.162;2023-06-14T00:11:17;101116.69;;;14.00;56.35
49835;BME280;35729;52.090;13.162;2023-06-14T00:13:46;101116.03;;;13.93;56.53
49835;BME280;35729;52.090;13.162;2023-06-14T00:16:14;101122.34;;;13.88;56.48
49835;BME280;35729;52.090;13.162;2023-06-14T00:18:44;101126.97;;;13.79;56.68
49835;BME280;35729;52.090;13.162;2023-06-14T00:21:13;101124.47;;;13.75;57.08
49835;BME280;35729;52.090;13.162;2023-06-14T00:23:41;101127.25;;;13.70;57.13
49835;BME280;35729;52.090;13.162;2023-06-14T00:26:12;101122.16;;;13.64;57.48
49835;BME280;35729;52.090;13.162;2023-06-14T00:28:41;101126.69;;;13.59;57.53
49835;BME280;35729;52.090;13.162;2023-06-14T00:31:10;101124.19;;;13.54;57.69
49835;BME280;35729;52.090;13.162;2023-06-14T00:33:38;101119.97;;;13.48;57.83
49835;BME280;35729;52.090;13.162;2023-06-14T00:36:07;101119.19;;;13.43;58.05
49835;BME280;35729;52.090;13.162;2023-06-14T00:38:35;101127.19;;;13.40;58.28
49835;BME280;35729;52.090;13.162;2023-06-14T00:41:04;101129.91;;;13.35;58.46
49835;BME280;35729;52.090;13.162;2023-06-14T00:43:35;101127.44;;;13.29;58.68
49835;BME280;35729;52.090;13.162;2023-06-14T00:46:03;101121.41;;;13.26;58.82
49835;BME280;35729;52.090;13.162;2023-06-14T00:48:33;101127.69;;;13.20;59.17
49835;BME280;35729;52.090;13.162;2023-06-14T00:51:02;101126.97;;;13.15;59.36
49835;BME280;35729;52.090;13.162;2023-06-14T00:53:31;101116.53;;;13.10;59.29
49835;BME280;35729;52.090;13.162;2023-06-14T00:56:01;101121.06;;;13.05;59.63
49835;BME280;35729;52.090;13.162;2023-06-14T00:58:30;101117.63;;;13.01;59.90
49835;BME280;35729;52.090;13.162;2023-06-14T01:01:03;101118.72;;;12.94;60.16
49835;BME280;35729;52.090;13.162;2023-06-14T01:03:31;101120.56;;;12.91;60.24
49835;BME280;35729;52.090;13.162;2023-06-14T01:06:17;101127.72;;;12.85;60.72
49835;BME280;35729;52.090;13.162;2023-06-14T01:09:00;101126.13;;;12.78;60.78
49835;BME280;35729;52.090;13.162;2023-06-14T01:11:35;101125.38;;;12.73;60.81
49835;BME280;35729;52.090;13.162;2023-06-14T01:14:05;101132.47;;;12.69;60.77
49835;BME280;35729;52.090;13.162;2023-06-14T01:16:36;101135.22;;;12.65;60.82
49835;BME280;35729;52.090;13.162;2023-06-14T01:19:06;101136.19;;;12.61;61.08
49835;BME280;35729;52.090;13.162;2023-06-14T01:21:39;101135.41;;;12.59;61.34
49835;BME280;35729;52.090;13.162;2023-06-14T01:24:10;101135.44;;;12.55;61.68
49835;BME280;35729;52.090;13.162;2023-06-14T01:26:39;101131.97;;;12.53;61.75
49835;BME280;35729;52.090;13.162;2023-06-14T01:29:11;101135.59;;;12.49;62.08
49835;BME280;35729;52.090;13.162;2023-06-14T01:31:43;101143.56;;;12.46;62.31
49835;BME280;35729;52.090;13.162;2023-06-14T01:34:12;101141.88;;;12.44;62.49
49835;BME280;35729;52.090;13.162;2023-06-14T01:36:41;101142.81;;;12.39;62.75
49835;BME280;35729;52.090;13.162;2023-06-14T01:39:15;101134.16;;;12.36;62.95
49835;BME280;35729;52.090;13.162;2023-06-14T01:41:45;101141.22;;;12.34;63.11
49835;BME280;35729;52.090;13.162;2023-06-14T01:44:17;101141.25;;;12.31;62.99
49835;BME280;35729;52.090;13.162;2023-06-14T01:46:47;101142.19;;;12.30;63.36
49835;BME280;35729;52.090;13.162;2023-06-14T01:49:16;101136.09;;;12.28;63.79
49835;BME280;35729;52.090;13.162;2023-06-14T01:51:44;101136.19;;;12.23;63.89
49835;BME280;35729;52.090;13.162;2023-06-14T01:54:16;101138.84;;;12.21;64.20
49835;BME280;35729;52.090;13.162;2023-06-14T01:56:44;101131.03;;;12.18;64.28
49835;BME280;35729;52.090;13.162;2023-06-14T01:59:12;101136.34;;;12.15;64.43
49835;BME280;35729;52.090;13.162;2023-06-14T02:01:41;101137.25;;;12.14;64.58
49835;BME280;35729;52.090;13.162;2023-06-14T02:04:10;101141.66;;;12.14;64.79
49835;BME280;35729;52.090;13.162;2023-06-14T02:06:38;101141.66;;;12.14;64.74
49835;BME280;35729;52.090;13.162;2023-06-14T02:09:07;101138.19;;;12.13;64.88
49835;BME280;35729;52.090;13.162;2023-06-14T02:11:38;101143.44;;;12.13;65.09
49835;BME280;35729;52.090;13.162;2023-06-14T02:14:06;101147.81;;;12.13;65.09
49835;BME280;35729;52.090;13.162;2023-06-14T02:16:37;101146.06;;;12.12;65.40
49835;BME280;35729;52.090;13.162;2023-06-14T02:19:06;101143.47;;;12.10;65.41
49835;BME280;35729;52.090;13.162;2023-06-14T02:21:34;101147.91;;;12.10;65.48
49835;BME280;35729;52.090;13.162;2023-06-14T02:24:03;101150.56;;;12.06;65.64
49835;BME280;35729;52.090;13.162;2023-06-14T02:26:31;101143.63;;;12.04;65.76
49835;BME280;35729;52.090;13.162;2023-06-14T02:29:02;101140.22;;;11.99;65.96
49835;BME280;35729;52.090;13.162;2023-06-14T02:31:31;101140.31;;;11.96;66.07
49835;BME280;35729;52.090;13.162;2023-06-14T02:34:00;101141.19;;;11.93;66.27
49835;BME280;35729;52.090;13.162;2023-06-14T02:36:28;101144.75;;;11.90;66.40
49835;BME280;35729;52.090;13.162;2023-06-14T02:38:57;101143.06;;;11.88;66.42
49835;BME280;35729;52.090;13.162;2023-06-14T02:41:26;101147.47;;;11.86;66.87
49835;BME280;35729;52.090;13.162;2023-06-14T02:43:54;101137.81;;;11.86;66.76
49835;BME280;35729;52.090;13.162;2023-06-14T02:46:26;101142.22;;;11.86;66.84
49835;BME280;35729;52.090;13.162;2023-06-14T02:48:55;101142.25;;;11.84;67.00
49835;BME280;35729;52.090;13.162;2023-06-14T02:51:23;101142.25;;;11.84;67.05
49835;BME280;35729;52.090;13.162;2023-06-14T02:53:52;101139.66;;;11.83;67.27
49835;BME280;35729;52.090;13.162;2023-06-14T02:56:20;101139.66;;;11.81;67.36
49835;BME280;35729;52.090;13.162;2023-06-14T02:58:49;101139.75;;;11.78;67.43
49835;BME280;35729;52.090;13.162;2023-06-14T03:01:27;101133.59;;;11.78;67.81
49835;BME280;35729;52.090;13.162;2023-06-14T03:03:59;101145.03;;;11.75;67.75
49835;BME280;35729;52.090;13.162;2023-06-14T03:06:28;101143.34;;;11.74;67.98
49835;BME280;35729;52.090;13.162;2023-06-14T03:08:59;101145.13;;;11.72;67.95
49835;BME280;35729;52.090;13.162;2023-06-14T03:11:30;101140.75;;;11.71;68.02
49835;BME280;35729;52.090;13.162;2023-06-14T03:14:00;101146.06;;;11.69;68.13
49835;BME280;35729;52.090;13.162;2023-06-14T03:16:31;101147.78;;;11.69;68.45
49835;BME280;35729;52.090;13.162;2023-06-14T03:19:00;101154.81;;;11.68;68.48
49835;BME280;35729;52.090;13.162;2023-06-14T03:21:29;101161.88;;;11.68;68.61
49835;BME280;35729;52.090;13.162;2023-06-14T03:23:57;101157.50;;;11.67;68.60
49835;BME280;35729;52.090;13.162;2023-06-14T03:26:27;101165.38;;;11.67;68.78
49835;BME280;35729;52.090;13.162;2023-06-14T03:29:17;101174.16;;;11.66;68.86
49835;BME280;35729;52.090;13.162;2023-06-14T03:31:59;101173.31;;;11.64;68.94
49835;BME280;35729;52.090;13.162;2023-06-14T03:34:28;101173.31;;;11.64;69.08
49835;BME280;35729;52.090;13.162;2023-06-14T03:36:56;101182.13;;;11.63;69.29
49835;BME280;35729;52.090;13.162;2023-06-14T03:39:32;101172.50;;;11.62;69.40
49835;BME280;35729;52.090;13.162;2023-06-14T03:42:12;101185.63;;;11.62;69.32
49835;BME280;35729;52.090;13.162;2023-06-14T03:44:40;101186.47;;;11.62;69.52
49835;BME280;35729;52.090;13.162;2023-06-14T03:47:11;101178.56;;;11.64;69.70
49835;BME280;35729;52.090;13.162;2023-06-14T03:49:40;101188.19;;;11.65;69.76
49835;BME280;35729;52.090;13.162;2023-06-14T03:52:08;101185.53;;;11.66;69.83
49835;BME280;35729;52.090;13.162;2023-06-14T03:54:38;101187.25;;;11.67;69.93
49835;BME280;35729;52.090;13.162;2023-06-14T03:57:08;101184.63;;;11.67;70.10
49835;BME280;35729;52.090;13.162;2023-06-14T03:59:37;101183.75;;;11.68;70.16
49835;BME280;35729;52.090;13.162;2023-06-14T04:02:06;101181.97;;;11.70;70.26
49835;BME280;35729;52.090;13.162;2023-06-14T04:04:38;101188.03;;;11.72;70.36
49835;BME280;35729;52.090;13.162;2023-06-14T04:07:09;101186.25;;;11.74;70.41
49835;BME280;35729;52.090;13.162;2023-06-14T04:09:38;101181.84;;;11.77;70.47
49835;BME280;35729;52.090;13.162;2023-06-14T04:12:07;101186.16;;;11.79;70.62
49835;BME280;35729;52.090;13.162;2023-06-14T04:14:37;101180.88;;;11.81;70.74
49835;BME280;35729;52.090;13.162;2023-06-14T04:17:06;101186.06;;;11.84;70.93
49835;BME280;35729;52.090;13.162;2023-06-14T04:19:34;101196.53;;;11.87;70.88
49835;BME280;35729;52.090;13.162;2023-06-14T04:22:06;101189.47;;;11.89;71.02
49835;BME280;35729;52.090;13.162;2023-06-14T04:24:36;101201.69;;;11.93;70.96
49835;BME280;35729;52.090;13.162;2023-06-14T04:27:04;101192.00;;;11.94;70.94
49835;BME280;35729;52.090;13.162;2023-06-14T04:29:33;101203.34;;;11.99;71.16
49835;BME280;35729;52.090;13.162;2023-06-14T04:32:02;101198.91;;;12.01;71.57
49835;BME280;35729;52.090;13.162;2023-06-14T04:34:31;101207.63;;;12.04;71.35
49835;BME280;35729;52.090;13.162;2023-06-14T04:37:05;101205.75;;;12.10;71.53
49835;BME280;35729;52.090;13.162;2023-06-14T04:39:35;101203.03;;;12.13;71.54
49835;BME280;35729;52.090;13.162;2023-06-14T04:42:04;101203.84;;;12.16;71.56
49835;BME280;35729;52.090;13.162;2023-06-14T04:44:33;101206.41;;;12.21;71.59
49835;BME280;35729;52.090;13.162;2023-06-14T04:47:02;101215.91;;;12.27;71.67
49835;BME280;35729;52.090;13.162;2023-06-14T04:49:32;101204.41;;;12.31;71.69
49835;BME280;35729;52.090;13.162;2023-06-14T04:52:00;101209.59;;;12.35;71.64
49835;BME280;35729;52.090;13.162;2023-06-14T04:54:32;101209.41;;;12.43;71.78
49835;BME280;35729;52.090;13.162;2023-06-14T04:57:03;101202.28;;;12.50;71.51
49835;BME280;35729;52.090;13.162;2023-06-14T04:59:32;101203.00;;;12.57;71.47
49835;BME280;35729;52.090;13.162;2023-06-14T05:02:02;101207.22;;;12.62;71.33
49835;BME280;35729;52.090;13.162;2023-06-14T05:04:32;101207.03;;;12.70;71.25
49835;BME280;35729;52.090;13.162;2023-06-14T05:07:06;101212.19;;;12.76;71.08
49835;BME280;35729;52.090;13.162;2023-06-14T05:09:37;101221.63;;;12.85;71.29
49835;BME280;35729;52.090;13.162;2023-06-14T05:12:06;101223.22;;;12.92;71.08
49835;BME280;35729;52.090;13.162;2023-06-14T05:14:36;101220.44;;;12.98;71.04
49835;BME280;35729;52.090;13.162;2023-06-14T05:17:05;101224.69;;;13.04;70.84
49835;BME280;35729;52.090;13.162;2023-06-14T05:19:35;101223.63;;;13.11;70.77
49835;BME280;35729;52.090;13.162;2023-06-14T05:22:03;101224.31;;;13.19;70.55
49835;BME280;35729;52.090;13.162;2023-06-14T05:24:34;101222.41;;;13.26;70.53
49835;BME280;35729;52.090;13.162;2023-06-14T05:27:07;101229.25;;;13.32;70.24
49835;BME280;35729;52.090;13.162;2023-06-14T05:29:36;101223.03;;;13.38;70.09
49835;BME280;35729;52.090;13.162;2023-06-14T05:32:06;101226.34;;;13.44;70.09
49835;BME280;35729;52.090;13.162;2023-06-14T05:34:35;101222.66;;;13.51;69.91
49835;BME280;35729;52.090;13.162;2023-06-14T05:37:04;101219.78;;;13.61;69.64
49835;BME280;35729;52.090;13.162;2023-06-14T05:39:32;101221.34;;;13.68;69.44
49835;BME280;35729;52.090;13.162;2023-06-14T05:42:01;101228.13;;;13.77;69.29
49835;BME280;35729;52.090;13.162;2023-06-14T05:44:32;101230.50;;;13.86;69.03
49835;BME280;35729;52.090;13.162;2023-06-14T05:47:00;101220.69;;;13.93;68.73
49835;BME280;35729;52.090;13.162;2023-06-14T05:49:29;101223.94;;;14.01;68.51
49835;BME280;35729;52.090;13.162;2023-06-14T05:51:57;101225.47;;;14.10;68.58
49835;BME280;35729;52.090;13.162;2023-06-14T05:54:26;101226.97;;;14.18;68.08
49835;BME280;35729;52.090;13.162;2023-06-14T05:56:54;101232.06;;;14.25;67.76
49835;BME280;35729;52.090;13.162;2023-06-14T05:59:26;101225.72;;;14.30;67.69
49835;BME280;35729;52.090;13.162;2023-06-14T06:01:58;101225.53;;;14.38;67.56
49835;BME280;35729;52.090;13.162;2023-06-14T06:04:26;101233.22;;;14.46;67.39
49835;BME280;35729;52.090;13.162;2023-06-14T06:06:54;101232.97;;;14.54;67.06
49835;BME280;35729;52.090;13.162;2023-06-14T06:09:23;101230.16;;;14.60;66.93
49835;BME280;35729;52.090;13.162;2023-06-14T06:11:51;101226.47;;;14.65;66.78
49835;BME280;35729;52.090;13.162;2023-06-14T06:14:20;101227.19;;;14.71;66.31
49835;BME280;35729;52.090;13.162;2023-06-14T06:16:49;101230.47;;;14.79;66.17
49835;BME280;35729;52.090;13.162;2023-06-14T06:19:20;101226.75;;;14.85;65.97
49835;BME280;35729;52.090;13.162;2023-06-14T06:21:49;101236.22;;;14.92;65.91
49835;BME280;35729;52.090;13.162;2023-06-14T06:24:17;101229.00;;;14.97;65.75
49835;BME280;35729;52.090;13.162;2023-06-14T06:26:45;101227.91;;;15.04;65.59
49835;BME280;35729;52.090;13.162;2023-06-14T06:29:14;101227.72;;;15.10;65.19
49835;BME280;35729;52.090;13.162;2023-06-14T06:31:42;101229.22;;;15.18;65.10
49835;BME280;35729;52.090;13.162;2023-06-14T06:34:11;101223.72;;;15.24;64.98
49835;BME280;35729;52.090;13.162;2023-06-14T06:36:42;101225.25;;;15.31;64.60
49835;BME280;35729;52.090;13.162;2023-06-14T06:39:10;101229.38;;;15.40;64.36
49835;BME280;35729;52.090;13.162;2023-06-14T06:41:40;101233.41;;;15.50;64.10
49835;BME280;35729;52.090;13.162;2023-06-14T06:44:09;101234.81;;;15.60;63.85
49835;BME280;35729;52.090;13.162;2023-06-14T06:46:38;101238.88;;;15.71;63.59
49835;BME280;35729;52.090;13.162;2023-06-14T06:49:08;101240.28;;;15.81;63.37
49835;BME280;35729;52.090;13.162;2023-06-14T06:51:40;101243.47;;;15.91;63.07
49835;BME280;35729;52.090;13.162;2023-06-14T06:54:12;101241.50;;;15.98;62.88
49835;BME280;35729;52.090;13.162;2023-06-14T06:56:40;101242.00;;;16.07;62.30
49835;BME280;35729;52.090;13.162;2023-06-14T06:59:09;101240.78;;;16.16;61.97
49835;BME280;35729;52.090;13.162;2023-06-14T07:01:38;101248.47;;;16.24;61.78
49835;BME280;35729;52.090;13.162;2023-06-14T07:04:07;101247.38;;;16.29;61.59
49835;BME280;35729;52.090;13.162;2023-06-14T07:06:36;101242.69;;;16.36;61.34
49835;BME280;35729;52.090;13.162;2023-06-14T07:09:04;101251.28;;;16.43;60.77
49835;BME280;35729;52.090;13.162;2023-06-14T07:11:40;101264.31;;;16.49;60.59
49835;BME280;35729;52.090;13.162;2023-06-14T07:14:08;101268.47;;;16.55;60.42
49835;BME280;35729;52.090;13.162;2023-06-14T07:16:37;101273.53;;;16.61;60.21
49835;BME280;35729;52.090;13.162;2023-06-14T07:19:06;101275.09;;;16.67;59.62
49835;BME280;35729;52.090;13.162;2023-06-14T07:21:35;101279.22;;;16.74;59.42
49835;BME280;35729;52.090;13.162;2023-06-14T07:24:05;101274.53;;;16.81;58.90
49835;BME280;35729;52.090;13.162;2023-06-14T07:26:34;101269.00;;;16.87;58.60
49835;BME280;35729;52.090;13.162;2023-06-14T07:29:06;101269.69;;;16.93;58.59
49835;BME280;35729;52.090;13.162;2023-06-14T07:31:34;101272.13;;;16.98;58.23
49835;BME280;35729;52.090;13.162;2023-06-14T07:34:02;101266.72;;;17.01;58.01
49835;BME280;35729;52.090;13.162;2023-06-14T07:36:31;101269.13;;;17.07;57.57
49835;BME280;35729;52.090;13.162;2023-06-14T07:38:59;101274.84;;;17.19;57.54
49835;BME280;35729;52.090;13.162;2023-06-14T07:41:29;101272.88;;;17.24;57.01
49835;BME280;35729;52.090;13.162;2023-06-14T07:43:57;101266.56;;;17.26;56.65
49835;BME280;35729;52.090;13.162;2023-06-14T07:46:28;101270.13;;;17.25;56.63
49835;BME280;35729;52.090;13.162;2023-06-14T07:48:57;101268.97;;;17.33;56.60
49835;BME280;35729;52.090;13.162;2023-06-14T07:51:25;101273.13;;;17.38;56.45
49835;BME280;35729;52.090;13.162;2023-06-14T07:53:54;101263.81;;;17.50;56.35
49835;BME280;35729;52.090;13.162;2023-06-14T07:56:22;101268.66;;;17.61;56.11
49835;BME280;35729;52.090;13.162;2023-06-14T07:58:51;101264.66;;;17.71;56.12
49835;BME280;35729;52.090;13.162;2023-06-14T08:01:19;101259.75;;;17.83;56.00
49835;BME280;35729;52.090;13.162;2023-06-14T08:03:53;101261.06;;;17.95;55.85
49835;BME280;35729;52.090;13.162;2023-06-14T08:06:21;101270.16;;;18.08;55.71
49835;BME280;35729;52.090;13.162;2023-06-14T08:08:50;101259.94;;;18.19;55.22
49835;BME280;35729;52.090;13.162;2023-06-14T08:11:19;101257.50;;;18.34;55.04
49835;BME280;35729;52.090;13.162;2023-06-14T08:13:49;101257.66;;;18.50;54.53
49835;BME280;35729;52.090;13.162;2023-06-14T08:16:18;101257.78;;;18.66;54.08
49835;BME280;35729;52.090;13.162;2023-06-14T08:18:46;101258.06;;;18.79;54.24
49835;BME280;35729;52.090;13.162;2023-06-14T08:21:18;101252.19;;;18.91;53.48
49835;BME280;35729;52.090;13.162;2023-06-14T08:23:46;101256.13;;;19.01;53.58
49835;BME280;35729;52.090;13.162;2023-06-14T08:26:18;101249.78;;;19.04;53.41
49835;BME280;35729;52.090;13.162;2023-06-14T08:28:47;101258.25;;;19.12;52.97
49835;BME280;35729;52.090;13.162;2023-06-14T08:31:15;101262.66;;;19.13;52.62
49835;BME280;35729;52.090;13.162;2023-06-14T08:33:44;101253.00;;;19.11;52.82
49835;BME280;35729;52.090;13.162;2023-06-14T08:36:12;101252.22;;;19.09;53.09
49835;BME280;35729;52.090;13.162;2023-06-14T08:38:44;101241.59;;;19.09;52.57
49835;BME280;35729;52.090;13.162;2023-06-14T08:41:21;101251.13;;;19.13;52.12
49835;BME280;35729;52.090;13.162;2023-06-14T08:43:51;101248.25;;;19.17;52.70
49835;BME280;35729;52.090;13.162;2023-06-14T08:46:20;101240.09;;;19.20;52.84
49835;BME280;35729;52.090;13.162;2023-06-14T08:48:49;101237.06;;;19.28;52.51
49835;BME280;35729;52.090;13.162;2023-06-14T08:51:19;101243.72;;;19.37;52.48
49835;BME280;35729;52.090;13.162;2023-06-14T08:53:53;101246.75;;;19.47;51.84
49835;BME280;35729;52.090;13.162;2023-06-14T08:56:25;101243.72;;;19.54;51.90
49835;BME280;35729;52.090;13.162;2023-06-14T08:58:55;101253.03;;;19.63;51.82
49835;BME280;35729;52.090;13.162;2023-06-14T09:01:26;101248.16;;;19.72;50.95
49835;BME280;35729;52.090;13.162;2023-06-14T09:03:56;101250.56;;;19.76;51.21
49835;BME280;35729;52.090;13.162;2023-06-14T09:06:25;101244.31;;;19.77;50.58
49835;BME280;35729;52.090;13.162;2023-06-14T09:08:57;101249.41;;;19.82;50.58
49835;BME280;35729;52.090;13.162;2023-06-14T09:11:26;101247.38;;;19.87;50.47
49835;BME280;35729;52.090;13.162;2023-06-14T09:13:55;101248.09;;;19.91;50.22
49835;BME280;35729;52.090;13.162;2023-06-14T09:16:23;101249.19;;;19.86;49.92
49835;BME280;35729;52.090;13.162;2023-06-14T09:18:51;101252.84;;;19.84;50.18
49835;BME280;35729;52.090;13.162;2023-06-14T09:21:22;101246.50;;;19.86;49.97
49835;BME280;35729;52.090;13.162;2023-06-14T09:23:51;101242.78;;;19.91;49.40
49835;BME280;35729;52.090;13.162;2023-06-14T09:26:23;101252.22;;;19.96;49.35
49835;BME280;35729;52.090;13.162;2023-06-14T09:28:53;101248.28;;;20.04;49.03
49835;BME280;35729;52.090;13.162;2023-06-14T09:31:21;101253.19;;;20.11;48.86
49835;BME280;35729;52.090;13.162;2023-06-14T09:33:51;101252.69;;;20.21;48.36
49835;BME280;35729;52.090;13.162;2023-06-14T09:36:23;101251.28;;;20.31;48.35
49835;BME280;35729;52.090;13.162;2023-06-14T09:38:53;101256.88;;;20.42;47.89
49835;BME280;35729;52.090;13.162;2023-06-14T09:41:35;101255.50;;;20.51;47.21
49835;BME280;35729;52.090;13.162;2023-06-14T09:44:05;101251.63;;;20.57;46.83
49835;BME280;35729;52.090;13.162;2023-06-14T09:46:35;101251.28;;;20.63;47.16
49835;BME280;35729;52.090;13.162;2023-06-14T09:49:04;101253.53;;;20.71;46.83
49835;BME280;35729;52.090;13.162;2023-06-14T09:51:35;101251.38;;;20.77;46.32
49835;BME280;35729;52.090;13.162;2023-06-14T09:54:05;101255.53;;;20.83;46.16
49835;BME280;35729;52.090;13.162;2023-06-14T09:56:38;101240.13;;;20.88;45.52
49835;BME280;35729;52.090;13.162;2023-06-14T09:59:09;101250.16;;;20.99;45.43
49835;BME280;35729;52.090;13.162;2023-06-14T10:01:41;101234.47;;;21.09;45.55
49835;BME280;35729;52.090;13.162;2023-06-14T10:04:11;101240.16;;;21.19;45.17
49835;BME280;35729;52.090;13.162;2023-06-14T10:06:45;101237.69;;;21.30;44.91
49835;BME280;35729;52.090;13.162;2023-06-14T10:09:13;101236.19;;;21.40;44.66
49835;BME280;35729;52.090;13.162;2023-06-14T10:11:45;101240.91;;;21.51;44.18
49835;BME280;35729;52.090;13.162;2023-06-14T10:14:14;101237.59;;;21.62;44.44
49835;BME280;35729;52.090;13.162;2023-06-14T10:16:49;101240.59;;;21.72;43.57
49835;BME280;35729;52.090;13.162;2023-06-14T10:19:24;101236.41;;;21.82;43.15
49835;BME280;35729;52.090;13.162;2023-06-14T10:22:02;101240.41;;;21.89;43.12
49835;BME280;35729;52.090;13.162;2023-06-14T10:24:33;101241.09;;;21.93;43.13
49835;BME280;35729;52.090;13.162;2023-06-14T10:27:07;101227.53;;;21.96;42.66
49835;BME280;35729;52.090;13.162;2023-06-14T10:30:02;101232.50;;;22.02;42.70
49835;BME280;35729;52.090;13.162;2023-06-14T10:32:31;101238.50;;;22.06;42.63
49835;BME280;35729;52.090;13.162;2023-06-14T10:35:04;101224.75;;;22.12;42.82
49835;BME280;35729;52.090;13.162;2023-06-14T10:37:33;101226.09;;;22.19;42.86
49835;BME280;35729;52.090;13.162;2023-06-14T10:40:02;101227.41;;;22.26;42.28
49835;BME280;35729;52.090;13.162;2023-06-14T10:42:35;101222.34;;;22.36;42.00
49835;BME280;35729;52.090;13.162;2023-06-14T10:45:05;101220.81;;;22.47;41.74
49835;BME280;35729;52.090;13.162;2023-06-14T10:47:34;101222.66;;;22.46;41.53
49835;BME280;35729;52.090;13.162;2023-06-14T10:50:06;101222.09;;;22.41;41.64
49835;BME280;35729;52.090;13.162;2023-06-14T10:52:38;101220.53;;;22.37;41.29
49835;BME280;35729;52.090;13.162;2023-06-14T10:55:08;101216.91;;;22.38;41.93
49835;BME280;35729;52.090;13.162;2023-06-14T10:57:42;101198.03;;;22.41;41.20
49835;BME280;35729;52.090;13.162;2023-06-14T11:00:12;101195.16;;;22.44;41.58
49835;BME280;35729;52.090;13.162;2023-06-14T11:06:13;101200.16;;;22.63;40.57
49835;BME280;35729;52.090;13.162;2023-06-14T11:11:45;101193.44;;;22.70;40.39
49835;BME280;35729;52.090;13.162;2023-06-14T11:14:16;101197.94;;;22.70;40.56
49835;BME280;35729;52.090;13.162;2023-06-14T11:16:48;101190.66;;;22.72;40.34
49835;BME280;35729;52.090;13.162;2023-06-14T11:19:16;101188.47;;;22.78;40.45
49835;BME280;35729;52.090;13.162;2023-06-14T11:21:47;101189.84;;;22.84;40.62
49835;BME280;35729;52.090;13.162;2023-06-14T11:24:16;101178.34;;;22.97;40.27
49835;BME280;35729;52.090;13.162;2023-06-14T11:26:47;101184.38;;;23.13;39.73
49835;BME280;35729;52.090;13.162;2023-06-14T11:29:20;101179.28;;;23.23;39.81
49835;BME280;35729;52.090;13.162;2023-06-14T11:31:48;101173.50;;;23.29;39.56
49835;BME280;35729;52.090;13.162;2023-06-14T11:34:17;101169.84;;;23.30;39.69
49835;BME280;35729;52.090;13.162;2023-06-14T11:36:46;101170.84;;;23.42;39.13
49835;BME280;35729;52.090;13.162;2023-06-14T11:39:14;101169.22;;;23.52;39.12
49835;BME280;35729;52.090;13.162;2023-06-14T11:41:44;101169.53;;;23.61;38.74
49835;BME280;35729;52.090;13.162;2023-06-14T11:44:12;101168.38;;;23.65;38.83
49835;BME280;35729;52.090;13.162;2023-06-14T11:46:44;101175.22;;;23.69;38.47
49835;BME280;35729;52.090;13.162;2023-06-14T11:49:13;101175.00;;;23.72;38.78
49835;BME280;35729;52.090;13.162;2023-06-14T11:51:43;101166.94;;;23.72;38.68
49835;BME280;35729;52.090;13.162;2023-06-14T11:54:11;101166.00;;;23.73;38.50
49835;BME280;35729;52.090;13.162;2023-06-14T11:56:40;101167.72;;;23.74;38.33
49835;BME280;35729;52.090;13.162;2023-06-14T11:59:09;101161.59;;;23.72;37.67
49835;BME280;35729;52.090;13.162;2023-06-14T12:01:38;101161.81;;;23.69;38.03
49835;BME280;35729;52.090;13.162;2023-06-14T12:04:09;101174.47;;;23.67;37.80
49835;BME280;35729;52.090;13.162;2023-06-14T12:06:37;101170.81;;;23.68;37.74
49835;BME280;35729;52.090;13.162;2023-06-14T12:09:07;101167.94;;;23.71;37.44
49835;BME280;35729;52.090;13.162;2023-06-14T12:11:38;101170.28;;;23.75;37.49
49835;BME280;35729;52.090;13.162;2023-06-14T12:14:08;101165.69;;;23.78;37.46
49835;BME280;35729;52.090;13.162;2023-06-14T12:16:38;101171.78;;;23.80;37.52
49835;BME280;35729;52.090;13.162;2023-06-14T12:19:13;101174.34;;;23.81;36.97
49835;BME280;35729;52.090;13.162;2023-06-14T12:21:43;101162.56;;;23.84;37.03
49835;BME280;35729;52.090;13.162;2023-06-14T12:24:14;101158.69;;;23.88;36.56
49835;BME280;35729;52.090;13.162;2023-06-14T12:26:42;101150.25;;;23.94;36.76
49835;BME280;35729;52.090;13.162;2023-06-14T12:29:12;101160.84;;;23.96;36.52
49835;BME280;35729;52.090;13.162;2023-06-14T12:31:40;101158.81;;;23.86;36.83
49835;BME280;35729;52.090;13.162;2023-06-14T12:34:12;101160.44;;;23.76;36.58
49835;BME280;35729;52.090;13.162;2023-06-14T12:36:40;101164.38;;;23.70;36.87
49835;BME280;35729;52.090;13.162;2023-06-14T12:39:11;101167.41;;;23.66;36.79
49835;BME280;35729;52.090;13.162;2023-06-14T12:41:40;101173.50;;;23.68;36.74
49835;BME280;35729;52.090;13.162;2023-06-14T12:44:10;101167.19;;;23.69;36.50
49835;BME280;35729;52.090;13.162;2023-06-14T12:46:39;101176.41;;;23.65;36.72
49835;BME280;35729;52.090;13.162;2023-06-14T12:49:09;101174.81;;;23.62;36.62
49835;BME280;35729;52.090;13.162;2023-06-14T12:51:40;101173.19;;;23.59;36.51
49835;BME280;35729;52.090;13.162;2023-06-14T12:54:09;101167.09;;;23.57;36.75
49835;BME280;35729;52.090;13.162;2023-06-14T12:56:37;101164.16;;;23.61;36.80
49835;BME280;35729;52.090;13.162;2023-06-14T12:59:07;101168.03;;;23.69;36.69
49835;BME280;35729;52.090;13.162;2023-06-14T13:01:37;101152.16;;;23.79;36.24